sensor_id;sensor_type;location;lat;lon;timestamp;P1;durP1;ratioP1;P2;durP2;ratioP2
4957;SDS011;2494;51.872;9.688;2024-01-06T00:01:10;3.13;;;1.10;;
4957;SDS011;2494;51.872;9.688;2024-01-06T00:03:55;2.13;;;1.27;;
4957;SDS011;2494;51.872;9.688;2024-01-06T00:06:41;1.60;;;1.27;;
4957;SDS011;2494;51.872;9.688;2024-01-06T00:09:26;1.90;;;1.10;;
4957;SDS011;2494;51.872;9.688;2024-01-06T00:12:11;2.90;;;1.30;;
4957;SDS011;2494;51.872;9.688;2024-01-06T00:14:56;2.00;;;1.03;;
4957;SDS011;2494;51.872;9.688;2024-01-06T00:17:41;1.50;;;1.37;;
4957;SDS011;2494;51.872;9.688;2024-01-06T00:20:26;3.60;;;2.30;;
4957;SDS011;2494;51.872;9.688;2024-01-06T00:23:12;2.80;;;1.77;;
4957;SDS011;2494;51.872;9.688;2024-01-06T00:25:57;1.93;;;1.50;;
4957;SDS011;2494;51.872;9.688;2024-01-06T00:28:42;1.50;;;1.40;;
4957;SDS011;2494;51.872;9.688;2024-01-06T00:31:27;1.70;;;1.60;;
4957;SDS011;2494;51.872;9.688;2024-01-06T00:34:12;1.60;;;1.20;;
4957;SDS011;2494;51.872;9.688;2024-01-06T00:36:57;3.57;;;1.53;;
4957;SDS011;2494;51.872;9.688;2024-01-06T00:39:44;6.20;;;1.30;;
4957;SDS011;2494;51.872;9.688;2024-01-06T00:42:29;9.30;;;1.80;;
4957;SDS011;2494;51.872;9.688;2024-01-06T00:45:14;2.20;;;1.60;;
4957;SDS011;2494;51.872;9.688;2024-01-06T00:47:59;2.10;;;1.90;;
4957;SDS011;2494;51.872;9.688;2024-01-06T00:50:44;2.20;;;1.53;;
4957;SDS011;2494;51.872;9.688;2024-01-06T00:53:29;2.27;;;1.30;;
4957;SDS011;2494;51.872;9.688;2024-01-06T00:56:15;3.67;;;1.17;;
4957;SDS011;2494;51.872;9.688;2024-01-06T00:59:00;4.17;;;1.47;;
4957;SDS011;2494;51.872;9.688;2024-01-06T01:01:45;4.57;;;1.47;;
4957;SDS011;2494;51.872;9.688;2024-01-06T01:04:30;4.57;;;1.80;;
4957;SDS011;2494;51.872;9.688;2024-01-06T01:07:15;2.40;;;2.20;;
4957;SDS011;2494;51.872;9.688;2024-01-06T01:10:00;2.70;;;1.80;;
4957;SDS011;2494;51.872;9.688;2024-01-06T01:12:46;3.87;;;1.80;;
4957;SDS011;2494;51.872;9.688;2024-01-06T01:15:31;2.00;;;1.90;;
4957;SDS011;2494;51.872;9.688;2024-01-06T01:18:17;2.60;;;1.77;;
4957;SDS011;2494;51.872;9.688;2024-01-06T01:21:01;2.30;;;1.60;;
4957;SDS011;2494;51.872;9.688;2024-01-06T01:23:47;3.30;;;1.80;;
4957;SDS011;2494;51.872;9.688;2024-01-06T01:26:32;2.40;;;1.33;;
4957;SDS011;2494;51.872;9.688;2024-01-06T01:29:18;1.70;;;1.60;;
4957;SDS011;2494;51.872;9.688;2024-01-06T01:32:04;2.60;;;1.50;;
4957;SDS011;2494;51.872;9.688;2024-01-06T01:34:49;2.27;;;1.60;;
4957;SDS011;2494;51.872;9.688;2024-01-06T01:37:34;2.87;;;1.20;;
4957;SDS011;2494;51.872;9.688;2024-01-06T01:40:19;2.10;;;1.67;;
4957;SDS011;2494;51.872;9.688;2024-01-06T01:43:04;1.53;;;1.40;;
4957;SDS011;2494;51.872;9.688;2024-01-06T01:45:53;3.73;;;1.40;;
4957;SDS011;2494;51.872;9.688;2024-01-06T01:48:38;1.73;;;1.27;;
4957;SDS011;2494;51.872;9.688;2024-01-06T01:51:24;3.10;;;2.13;;
4957;SDS011;2494;51.872;9.688;2024-01-06T01:54:11;2.83;;;1.47;;
4957;SDS011;2494;51.872;9.688;2024-01-06T01:56:56;1.37;;;1.27;;
4957;SDS011;2494;51.872;9.688;2024-01-06T01:59:41;3.20;;;1.50;;
4957;SDS011;2494;51.872;9.688;2024-01-06T02:02:28;1.70;;;1.50;;
4957;SDS011;2494;51.872;9.688;2024-01-06T02:05:13;3.10;;;1.40;;
4957;SDS011;2494;51.872;9.688;2024-01-06T02:07:58;5.00;;;1.70;;
4957;SDS011;2494;51.872;9.688;2024-01-06T02:10:43;4.47;;;2.17;;
4957;SDS011;2494;51.872;9.688;2024-01-06T02:13:32;2.50;;;1.67;;
4957;SDS011;2494;51.872;9.688;2024-01-06T02:16:17;1.43;;;1.33;;
4957;SDS011;2494;51.872;9.688;2024-01-06T02:19:04;2.37;;;1.60;;
4957;SDS011;2494;51.872;9.688;2024-01-06T02:21:52;1.97;;;1.70;;
4957;SDS011;2494;51.872;9.688;2024-01-06T02:24:37;1.90;;;1.37;;
4957;SDS011;2494;51.872;9.688;2024-01-06T02:27:22;3.23;;;2.50;;
4957;SDS011;2494;51.872;9.688;2024-01-06T02:30:08;1.97;;;1.67;;
4957;SDS011;2494;51.872;9.688;2024-01-06T02:32:54;1.47;;;1.37;;
4957;SDS011;2494;51.872;9.688;2024-01-06T02:35:39;4.80;;;2.07;;
4957;SDS011;2494;51.872;9.688;2024-01-06T02:38:25;1.60;;;1.50;;
4957;SDS011;2494;51.872;9.688;2024-01-06T02:41:10;2.40;;;1.73;;
4957;SDS011;2494;51.872;9.688;2024-01-06T02:43:55;1.47;;;1.37;;
4957;SDS011;2494;51.872;9.688;2024-01-06T02:46:41;1.97;;;1.83;;
4957;SDS011;2494;51.872;9.688;2024-01-06T02:49:26;2.20;;;1.60;;
4957;SDS011;2494;51.872;9.688;2024-01-06T02:52:11;2.67;;;1.63;;
4957;SDS011;2494;51.872;9.688;2024-01-06T02:54:57;4.57;;;1.73;;
4957;SDS011;2494;51.872;9.688;2024-01-06T02:57:43;2.03;;;1.83;;
4957;SDS011;2494;51.872;9.688;2024-01-06T03:00:28;3.00;;;1.40;;
4957;SDS011;2494;51.872;9.688;2024-01-06T03:03:13;3.27;;;1.40;;
4957;SDS011;2494;51.872;9.688;2024-01-06T03:05:58;10.70;;;1.60;;
4957;SDS011;2494;51.872;9.688;2024-01-06T03:08:43;2.87;;;1.73;;
4957;SDS011;2494;51.872;9.688;2024-01-06T03:11:29;1.87;;;1.40;;
4957;SDS011;2494;51.872;9.688;2024-01-06T03:14:14;3.13;;;1.50;;
4957;SDS011;2494;51.872;9.688;2024-01-06T03:16:59;1.50;;;1.40;;
4957;SDS011;2494;51.872;9.688;2024-01-06T03:19:44;2.07;;;1.70;;
4957;SDS011;2494;51.872;9.688;2024-01-06T03:22:29;2.30;;;1.47;;
4957;SDS011;2494;51.872;9.688;2024-01-06T03:25:14;2.57;;;1.97;;
4957;SDS011;2494;51.872;9.688;2024-01-06T03:28:01;2.60;;;2.00;;
4957;SDS011;2494;51.872;9.688;2024-01-06T03:30:46;2.00;;;1.90;;
4957;SDS011;2494;51.872;9.688;2024-01-06T03:33:31;2.33;;;1.90;;
4957;SDS011;2494;51.872;9.688;2024-01-06T03:36:16;2.47;;;1.80;;
4957;SDS011;2494;51.872;9.688;2024-01-06T03:39:01;3.20;;;1.90;;
4957;SDS011;2494;51.872;9.688;2024-01-06T03:41:47;5.70;;;1.83;;
4957;SDS011;2494;51.872;9.688;2024-01-06T03:44:34;3.27;;;1.93;;
4957;SDS011;2494;51.872;9.688;2024-01-06T03:47:19;2.30;;;2.10;;
4957;SDS011;2494;51.872;9.688;2024-01-06T03:50:04;4.07;;;1.80;;
4957;SDS011;2494;51.872;9.688;2024-01-06T03:52:49;2.23;;;2.13;;
4957;SDS011;2494;51.872;9.688;2024-01-06T03:55:34;3.40;;;2.77;;
4957;SDS011;2494;51.872;9.688;2024-01-06T03:58:19;3.63;;;1.73;;
4957;SDS011;2494;51.872;9.688;2024-01-06T04:01:05;4.40;;;3.00;;
4957;SDS011;2494;51.872;9.688;2024-01-06T04:03:50;4.40;;;2.00;;
4957;SDS011;2494;51.872;9.688;2024-01-06T04:06:35;4.30;;;2.43;;
4957;SDS011;2494;51.872;9.688;2024-01-06T04:09:20;7.33;;;2.80;;
4957;SDS011;2494;51.872;9.688;2024-01-06T04:12:06;1.63;;;1.53;;
4957;SDS011;2494;51.872;9.688;2024-01-06T04:14:51;1.90;;;1.80;;
4957;SDS011;2494;51.872;9.688;2024-01-06T04:17:37;5.23;;;1.70;;
4957;SDS011;2494;51.872;9.688;2024-01-06T04:20:22;8.90;;;3.20;;
4957;SDS011;2494;51.872;9.688;2024-01-06T04:23:07;2.23;;;1.70;;
4957;SDS011;2494;51.872;9.688;2024-01-06T04:25:52;4.50;;;1.67;;
4957;SDS011;2494;51.872;9.688;2024-01-06T04:28:37;2.57;;;1.80;;
4957;SDS011;2494;51.872;9.688;2024-01-06T04:31:22;1.87;;;1.60;;
4957;SDS011;2494;51.872;9.688;2024-01-06T04:34:08;1.90;;;1.60;;
4957;SDS011;2494;51.872;9.688;2024-01-06T04:36:53;2.03;;;1.87;;
4957;SDS011;2494;51.872;9.688;2024-01-06T04:39:38;2.53;;;2.33;;
4957;SDS011;2494;51.872;9.688;2024-01-06T04:42:23;1.60;;;1.43;;
4957;SDS011;2494;51.872;9.688;2024-01-06T04:45:08;2.00;;;1.80;;
4957;SDS011;2494;51.872;9.688;2024-01-06T04:47:53;1.60;;;1.43;;
4957;SDS011;2494;51.872;9.688;2024-01-06T04:50:40;2.47;;;1.77;;
4957;SDS011;2494;51.872;9.688;2024-01-06T04:53:25;2.57;;;1.93;;
4957;SDS011;2494;51.872;9.688;2024-01-06T04:56:10;3.67;;;3.37;;
4957;SDS011;2494;51.872;9.688;2024-01-06T04:58:55;2.63;;;2.43;;
4957;SDS011;2494;51.872;9.688;2024-01-06T05:01:41;3.30;;;2.80;;
4957;SDS011;2494;51.872;9.688;2024-01-06T05:04:26;6.37;;;2.50;;
4957;SDS011;2494;51.872;9.688;2024-01-06T05:07:12;2.40;;;2.20;;
4957;SDS011;2494;51.872;9.688;2024-01-06T05:09:57;3.33;;;3.03;;
4957;SDS011;2494;51.872;9.688;2024-01-06T05:12:42;2.20;;;2.00;;
4957;SDS011;2494;51.872;9.688;2024-01-06T05:15:27;3.70;;;2.13;;
4957;SDS011;2494;51.872;9.688;2024-01-06T05:18:12;5.13;;;2.30;;
4957;SDS011;2494;51.872;9.688;2024-01-06T05:20:57;1.80;;;1.53;;
4957;SDS011;2494;51.872;9.688;2024-01-06T05:23:43;3.43;;;2.07;;
4957;SDS011;2494;51.872;9.688;2024-01-06T05:26:28;2.80;;;2.23;;
4957;SDS011;2494;51.872;9.688;2024-01-06T05:29:13;2.30;;;2.10;;
4957;SDS011;2494;51.872;9.688;2024-01-06T05:31:59;3.40;;;2.10;;
4957;SDS011;2494;51.872;9.688;2024-01-06T05:34:44;4.57;;;2.27;;
4957;SDS011;2494;51.872;9.688;2024-01-06T05:37:29;3.60;;;2.40;;
4957;SDS011;2494;51.872;9.688;2024-01-06T05:40:15;3.00;;;2.53;;
4957;SDS011;2494;51.872;9.688;2024-01-06T05:43:00;3.93;;;2.70;;
4957;SDS011;2494;51.872;9.688;2024-01-06T05:45:45;2.87;;;2.67;;
4957;SDS011;2494;51.872;9.688;2024-01-06T05:48:30;4.27;;;2.73;;
4957;SDS011;2494;51.872;9.688;2024-01-06T05:51:15;2.63;;;2.40;;
4957;SDS011;2494;51.872;9.688;2024-01-06T05:54:00;2.90;;;1.90;;
4957;SDS011;2494;51.872;9.688;2024-01-06T05:56:48;1.90;;;1.70;;
4957;SDS011;2494;51.872;9.688;2024-01-06T05:59:33;3.53;;;2.83;;
4957;SDS011;2494;51.872;9.688;2024-01-06T06:02:18;2.40;;;2.20;;
4957;SDS011;2494;51.872;9.688;2024-01-06T06:05:03;2.00;;;1.70;;
4957;SDS011;2494;51.872;9.688;2024-01-06T06:07:48;7.67;;;2.63;;
4957;SDS011;2494;51.872;9.688;2024-01-06T06:10:33;3.70;;;2.10;;
4957;SDS011;2494;51.872;9.688;2024-01-06T06:13:36;21.43;;;14.87;;
4957;SDS011;2494;51.872;9.688;2024-01-06T06:16:22;16.40;;;10.30;;
4957;SDS011;2494;51.872;9.688;2024-01-06T06:19:10;10.20;;;7.43;;
4957;SDS011;2494;51.872;9.688;2024-01-06T06:21:55;4.30;;;3.17;;
4957;SDS011;2494;51.872;9.688;2024-01-06T06:24:40;5.00;;;3.60;;
4957;SDS011;2494;51.872;9.688;2024-01-06T06:27:25;3.53;;;2.30;;
4957;SDS011;2494;51.872;9.688;2024-01-06T06:30:12;14.67;;;8.37;;
4957;SDS011;2494;51.872;9.688;2024-01-06T06:32:57;17.50;;;12.10;;
4957;SDS011;2494;51.872;9.688;2024-01-06T06:35:42;3.77;;;2.53;;
4957;SDS011;2494;51.872;9.688;2024-01-06T06:38:27;2.83;;;2.30;;
4957;SDS011;2494;51.872;9.688;2024-01-06T06:41:13;6.20;;;2.83;;
4957;SDS011;2494;51.872;9.688;2024-01-06T06:43:58;3.73;;;2.87;;
4957;SDS011;2494;51.872;9.688;2024-01-06T06:46:45;3.07;;;2.77;;
4957;SDS011;2494;51.872;9.688;2024-01-06T06:49:30;3.00;;;2.60;;
4957;SDS011;2494;51.872;9.688;2024-01-06T06:52:16;9.40;;;3.70;;
4957;SDS011;2494;51.872;9.688;2024-01-06T06:55:01;8.23;;;5.53;;
4957;SDS011;2494;51.872;9.688;2024-01-06T06:57:46;9.50;;;7.77;;
4957;SDS011;2494;51.872;9.688;2024-01-06T07:00:31;5.50;;;4.00;;
4957;SDS011;2494;51.872;9.688;2024-01-06T07:03:18;3.30;;;2.90;;
4957;SDS011;2494;51.872;9.688;2024-01-06T07:06:04;5.20;;;2.50;;
4957;SDS011;2494;51.872;9.688;2024-01-06T07:08:49;3.97;;;2.63;;
4957;SDS011;2494;51.872;9.688;2024-01-06T07:11:34;4.50;;;2.70;;
4957;SDS011;2494;51.872;9.688;2024-01-06T07:14:19;3.43;;;2.67;;
4957;SDS011;2494;51.872;9.688;2024-01-06T07:17:04;4.33;;;2.40;;
4957;SDS011;2494;51.872;9.688;2024-01-06T07:19:51;10.43;;;5.60;;
4957;SDS011;2494;51.872;9.688;2024-01-06T07:22:37;8.13;;;4.37;;
4957;SDS011;2494;51.872;9.688;2024-01-06T07:25:22;10.97;;;6.60;;
4957;SDS011;2494;51.872;9.688;2024-01-06T07:28:07;10.60;;;5.80;;
4957;SDS011;2494;51.872;9.688;2024-01-06T07:30:52;11.13;;;7.83;;
4957;SDS011;2494;51.872;9.688;2024-01-06T07:33:38;7.00;;;4.90;;
4957;SDS011;2494;51.872;9.688;2024-01-06T07:36:25;7.20;;;5.90;;
4957;SDS011;2494;51.872;9.688;2024-01-06T07:39:11;7.37;;;6.53;;
4957;SDS011;2494;51.872;9.688;2024-01-06T07:41:56;6.27;;;5.37;;
4957;SDS011;2494;51.872;9.688;2024-01-06T07:44:41;8.27;;;5.50;;
4957;SDS011;2494;51.872;9.688;2024-01-06T07:47:26;3.47;;;3.23;;
4957;SDS011;2494;51.872;9.688;2024-01-06T07:50:11;3.37;;;3.17;;
4957;SDS011;2494;51.872;9.688;2024-01-06T07:52:58;3.33;;;3.03;;
4957;SDS011;2494;51.872;9.688;2024-01-06T07:55:43;3.07;;;2.77;;
4957;SDS011;2494;51.872;9.688;2024-01-06T07:58:28;3.40;;;3.20;;
4957;SDS011;2494;51.872;9.688;2024-01-06T08:01:13;3.10;;;2.90;;
4957;SDS011;2494;51.872;9.688;2024-01-06T08:03:59;5.40;;;5.00;;
4957;SDS011;2494;51.872;9.688;2024-01-06T08:06:44;5.43;;;5.00;;
4957;SDS011;2494;51.872;9.688;2024-01-06T08:09:30;6.70;;;5.00;;
4957;SDS011;2494;51.872;9.688;2024-01-06T08:12:15;8.10;;;4.50;;
4957;SDS011;2494;51.872;9.688;2024-01-06T08:15:01;10.13;;;6.10;;
4957;SDS011;2494;51.872;9.688;2024-01-06T08:17:46;17.83;;;10.87;;
4957;SDS011;2494;51.872;9.688;2024-01-06T08:20:31;33.33;;;16.50;;
4957;SDS011;2494;51.872;9.688;2024-01-06T08:23:17;16.37;;;9.47;;
4957;SDS011;2494;51.872;9.688;2024-01-06T08:26:05;7.30;;;4.97;;
4957;SDS011;2494;51.872;9.688;2024-01-06T08:28:51;3.73;;;3.37;;
4957;SDS011;2494;51.872;9.688;2024-01-06T08:31:36;5.60;;;3.03;;
4957;SDS011;2494;51.872;9.688;2024-01-06T08:34:21;5.33;;;4.43;;
4957;SDS011;2494;51.872;9.688;2024-01-06T08:37:07;4.60;;;4.20;;
4957;SDS011;2494;51.872;9.688;2024-01-06T08:39:52;11.40;;;8.80;;
4957;SDS011;2494;51.872;9.688;2024-01-06T08:42:38;8.07;;;7.30;;
4957;SDS011;2494;51.872;9.688;2024-01-06T08:45:23;5.50;;;4.80;;
4957;SDS011;2494;51.872;9.688;2024-01-06T08:48:09;3.47;;;3.17;;
4957;SDS011;2494;51.872;9.688;2024-01-06T08:50:55;4.20;;;3.40;;
4957;SDS011;2494;51.872;9.688;2024-01-06T08:53:40;6.17;;;3.47;;
4957;SDS011;2494;51.872;9.688;2024-01-06T08:56:25;13.30;;;8.23;;
4957;SDS011;2494;51.872;9.688;2024-01-06T08:59:13;5.10;;;4.30;;
4957;SDS011;2494;51.872;9.688;2024-01-06T09:01:58;8.87;;;4.30;;
4957;SDS011;2494;51.872;9.688;2024-01-06T09:04:43;5.40;;;4.27;;
4957;SDS011;2494;51.872;9.688;2024-01-06T09:07:28;4.80;;;4.30;;
4957;SDS011;2494;51.872;9.688;2024-01-06T09:10:13;5.37;;;4.97;;
4957;SDS011;2494;51.872;9.688;2024-01-06T09:12:58;9.67;;;4.57;;
4957;SDS011;2494;51.872;9.688;2024-01-06T09:15:45;4.70;;;4.30;;
4957;SDS011;2494;51.872;9.688;2024-01-06T09:18:30;6.63;;;3.90;;
4957;SDS011;2494;51.872;9.688;2024-01-06T09:21:15;5.40;;;4.50;;
4957;SDS011;2494;51.872;9.688;2024-01-06T09:24:01;3.60;;;3.30;;
4957;SDS011;2494;51.872;9.688;2024-01-06T09:26:50;7.50;;;5.50;;
4957;SDS011;2494;51.872;9.688;2024-01-06T09:29:35;7.83;;;6.47;;
4957;SDS011;2494;51.872;9.688;2024-01-06T09:32:21;9.20;;;6.93;;
4957;SDS011;2494;51.872;9.688;2024-01-06T09:35:07;9.30;;;5.47;;
4957;SDS011;2494;51.872;9.688;2024-01-06T09:37:52;6.90;;;5.87;;
4957;SDS011;2494;51.872;9.688;2024-01-06T09:40:41;8.27;;;7.47;;
4957;SDS011;2494;51.872;9.688;2024-01-06T09:43:26;7.17;;;6.47;;
4957;SDS011;2494;51.872;9.688;2024-01-06T09:46:27;16.00;;;9.90;;
4957;SDS011;2494;51.872;9.688;2024-01-06T09:49:14;5.57;;;5.07;;
4957;SDS011;2494;51.872;9.688;2024-01-06T09:51:59;5.57;;;5.07;;
4957;SDS011;2494;51.872;9.688;2024-01-06T09:54:46;8.13;;;4.57;;
4957;SDS011;2494;51.872;9.688;2024-01-06T09:57:35;7.70;;;5.90;;
4957;SDS011;2494;51.872;9.688;2024-01-06T10:00:20;6.23;;;5.63;;
4957;SDS011;2494;51.872;9.688;2024-01-06T10:03:06;7.13;;;6.40;;
4957;SDS011;2494;51.872;9.688;2024-01-06T10:05:53;8.60;;;5.03;;
4957;SDS011;2494;51.872;9.688;2024-01-06T10:08:38;17.90;;;5.00;;
4957;SDS011;2494;51.872;9.688;2024-01-06T10:11:24;5.33;;;4.93;;
4957;SDS011;2494;51.872;9.688;2024-01-06T10:14:11;6.23;;;3.97;;
4957;SDS011;2494;51.872;9.688;2024-01-06T10:16:56;4.30;;;4.00;;
4957;SDS011;2494;51.872;9.688;2024-01-06T10:19:41;5.70;;;4.70;;
4957;SDS011;2494;51.872;9.688;2024-01-06T10:22:30;3.37;;;3.07;;
4957;SDS011;2494;51.872;9.688;2024-01-06T10:25:15;5.80;;;3.97;;
4957;SDS011;2494;51.872;9.688;2024-01-06T10:28:00;4.13;;;3.70;;
4957;SDS011;2494;51.872;9.688;2024-01-06T10:30:45;5.03;;;3.83;;
4957;SDS011;2494;51.872;9.688;2024-01-06T10:33:30;5.30;;;4.40;;
4957;SDS011;2494;51.872;9.688;2024-01-06T10:36:17;3.30;;;2.77;;
4957;SDS011;2494;51.872;9.688;2024-01-06T10:39:03;4.10;;;3.80;;
4957;SDS011;2494;51.872;9.688;2024-01-06T10:41:51;7.17;;;3.50;;
4957;SDS011;2494;51.872;9.688;2024-01-06T10:44:37;3.57;;;3.07;;
4957;SDS011;2494;51.872;9.688;2024-01-06T10:47:23;3.43;;;3.13;;
4957;SDS011;2494;51.872;9.688;2024-01-06T10:50:10;4.40;;;2.80;;
4957;SDS011;2494;51.872;9.688;2024-01-06T10:52:56;3.87;;;3.40;;
4957;SDS011;2494;51.872;9.688;2024-01-06T10:55:43;4.60;;;3.40;;
4957;SDS011;2494;51.872;9.688;2024-01-06T10:58:29;3.43;;;2.77;;
4957;SDS011;2494;51.872;9.688;2024-01-06T11:01:15;3.40;;;3.20;;
4957;SDS011;2494;51.872;9.688;2024-01-06T11:04:00;4.57;;;3.30;;
4957;SDS011;2494;51.872;9.688;2024-01-06T11:06:47;6.13;;;3.53;;
4957;SDS011;2494;51.872;9.688;2024-01-06T11:09:33;3.60;;;2.43;;
4957;SDS011;2494;51.872;9.688;2024-01-06T11:12:21;3.47;;;3.00;;
4957;SDS011;2494;51.872;9.688;2024-01-06T11:15:06;5.40;;;3.53;;
4957;SDS011;2494;51.872;9.688;2024-01-06T11:17:52;4.30;;;4.00;;
4957;SDS011;2494;51.872;9.688;2024-01-06T11:20:38;5.73;;;3.70;;
4957;SDS011;2494;51.872;9.688;2024-01-06T11:23:24;4.10;;;3.73;;
4957;SDS011;2494;51.872;9.688;2024-01-06T11:26:09;5.07;;;3.10;;
4957;SDS011;2494;51.872;9.688;2024-01-06T11:28:55;5.10;;;4.10;;
4957;SDS011;2494;51.872;9.688;2024-01-06T11:31:42;4.13;;;3.73;;
4957;SDS011;2494;51.872;9.688;2024-01-06T11:34:27;3.60;;;3.33;;
4957;SDS011;2494;51.872;9.688;2024-01-06T11:37:17;9.03;;;4.70;;
4957;SDS011;2494;51.872;9.688;2024-01-06T11:40:02;7.20;;;5.50;;
4957;SDS011;2494;51.872;9.688;2024-01-06T11:42:48;10.30;;;7.70;;
4957;SDS011;2494;51.872;9.688;2024-01-06T11:45:35;6.70;;;6.00;;
4957;SDS011;2494;51.872;9.688;2024-01-06T11:48:20;5.50;;;5.00;;
4957;SDS011;2494;51.872;9.688;2024-01-06T11:51:06;5.50;;;3.93;;
4957;SDS011;2494;51.872;9.688;2024-01-06T11:53:51;4.63;;;3.43;;
4957;SDS011;2494;51.872;9.688;2024-01-06T11:56:37;3.13;;;2.90;;
4957;SDS011;2494;51.872;9.688;2024-01-06T11:59:22;4.03;;;3.60;;
4957;SDS011;2494;51.872;9.688;2024-01-06T12:02:11;5.10;;;3.90;;
4957;SDS011;2494;51.872;9.688;2024-01-06T12:04:57;4.90;;;4.50;;
4957;SDS011;2494;51.872;9.688;2024-01-06T12:07:42;5.57;;;4.30;;
4957;SDS011;2494;51.872;9.688;2024-01-06T12:10:27;5.57;;;4.73;;
4957;SDS011;2494;51.872;9.688;2024-01-06T12:13:13;5.53;;;5.03;;
4957;SDS011;2494;51.872;9.688;2024-01-06T12:15:58;9.23;;;4.97;;
4957;SDS011;2494;51.872;9.688;2024-01-06T12:18:45;14.73;;;8.33;;
4957;SDS011;2494;51.872;9.688;2024-01-06T12:21:30;16.57;;;9.47;;
4957;SDS011;2494;51.872;9.688;2024-01-06T12:24:20;11.17;;;7.73;;
4957;SDS011;2494;51.872;9.688;2024-01-06T12:27:06;5.80;;;5.10;;
4957;SDS011;2494;51.872;9.688;2024-01-06T12:29:52;7.57;;;6.47;;
4957;SDS011;2494;51.872;9.688;2024-01-06T12:32:37;7.17;;;5.30;;
4957;SDS011;2494;51.872;9.688;2024-01-06T12:35:24;6.40;;;5.30;;
4957;SDS011;2494;51.872;9.688;2024-01-06T12:38:09;6.00;;;5.47;;
4957;SDS011;2494;51.872;9.688;2024-01-06T12:40:55;5.70;;;5.20;;
4957;SDS011;2494;51.872;9.688;2024-01-06T12:43:40;5.90;;;5.40;;
4957;SDS011;2494;51.872;9.688;2024-01-06T12:46:25;5.60;;;4.43;;
4957;SDS011;2494;51.872;9.688;2024-01-06T12:49:10;6.03;;;4.97;;
4957;SDS011;2494;51.872;9.688;2024-01-06T12:51:56;5.10;;;4.60;;
4957;SDS011;2494;51.872;9.688;2024-01-06T12:54:41;5.90;;;4.67;;
4957;SDS011;2494;51.872;9.688;2024-01-06T12:57:27;5.57;;;4.97;;
4957;SDS011;2494;51.872;9.688;2024-01-06T13:00:12;5.20;;;4.70;;
4957;SDS011;2494;51.872;9.688;2024-01-06T13:02:57;7.40;;;4.27;;
4957;SDS011;2494;51.872;9.688;2024-01-06T13:05:42;4.60;;;3.83;;
4957;SDS011;2494;51.872;9.688;2024-01-06T13:08:29;5.23;;;4.13;;
4957;SDS011;2494;51.872;9.688;2024-01-06T13:11:14;6.00;;;4.47;;
4957;SDS011;2494;51.872;9.688;2024-01-06T13:13:59;6.07;;;4.63;;
4957;SDS011;2494;51.872;9.688;2024-01-06T13:16:44;6.23;;;4.17;;
4957;SDS011;2494;51.872;9.688;2024-01-06T13:19:29;9.27;;;4.37;;
4957;SDS011;2494;51.872;9.688;2024-01-06T13:22:14;6.83;;;4.63;;
4957;SDS011;2494;51.872;9.688;2024-01-06T13:25:05;7.30;;;5.37;;
4957;SDS011;2494;51.872;9.688;2024-01-06T13:27:52;4.90;;;4.07;;
4957;SDS011;2494;51.872;9.688;2024-01-06T13:30:37;7.10;;;4.53;;
4957;SDS011;2494;51.872;9.688;2024-01-06T13:33:23;5.13;;;4.23;;
4957;SDS011;2494;51.872;9.688;2024-01-06T13:36:08;4.73;;;4.23;;
4957;SDS011;2494;51.872;9.688;2024-01-06T13:38:53;5.13;;;4.63;;
4957;SDS011;2494;51.872;9.688;2024-01-06T13:41:39;5.17;;;4.10;;
4957;SDS011;2494;51.872;9.688;2024-01-06T13:44:24;5.77;;;4.63;;
4957;SDS011;2494;51.872;9.688;2024-01-06T13:47:09;4.20;;;3.70;;
4957;SDS011;2494;51.872;9.688;2024-01-06T13:49:54;4.13;;;3.83;;
4957;SDS011;2494;51.872;9.688;2024-01-06T13:52:40;6.00;;;4.77;;
4957;SDS011;2494;51.872;9.688;2024-01-06T13:55:26;4.43;;;4.03;;
4957;SDS011;2494;51.872;9.688;2024-01-06T13:58:12;5.10;;;4.50;;
4957;SDS011;2494;51.872;9.688;2024-01-06T14:00:57;6.47;;;5.47;;
4957;SDS011;2494;51.872;9.688;2024-01-06T14:03:42;3.97;;;3.60;;
4957;SDS011;2494;51.872;9.688;2024-01-06T14:06:28;4.13;;;3.70;;
4957;SDS011;2494;51.872;9.688;2024-01-06T14:09:13;3.63;;;3.03;;
4957;SDS011;2494;51.872;9.688;2024-01-06T14:11:58;2.90;;;2.67;;
4957;SDS011;2494;51.872;9.688;2024-01-06T14:14:44;3.57;;;2.50;;
4957;SDS011;2494;51.872;9.688;2024-01-06T14:17:30;4.23;;;3.87;;
4957;SDS011;2494;51.872;9.688;2024-01-06T14:20:15;4.70;;;4.30;;
4957;SDS011;2494;51.872;9.688;2024-01-06T14:23:02;4.57;;;3.50;;
4957;SDS011;2494;51.872;9.688;2024-01-06T14:25:47;3.87;;;3.57;;
4957;SDS011;2494;51.872;9.688;2024-01-06T14:28:32;4.80;;;4.17;;
4957;SDS011;2494;51.872;9.688;2024-01-06T14:31:19;4.77;;;4.37;;
4957;SDS011;2494;51.872;9.688;2024-01-06T14:34:04;8.00;;;6.47;;
4957;SDS011;2494;51.872;9.688;2024-01-06T14:36:49;7.07;;;6.37;;
4957;SDS011;2494;51.872;9.688;2024-01-06T14:39:34;9.07;;;6.50;;
4957;SDS011;2494;51.872;9.688;2024-01-06T14:42:20;7.97;;;6.00;;
4957;SDS011;2494;51.872;9.688;2024-01-06T14:45:05;7.10;;;6.40;;
4957;SDS011;2494;51.872;9.688;2024-01-06T14:47:53;10.10;;;6.33;;
4957;SDS011;2494;51.872;9.688;2024-01-06T14:50:38;9.13;;;7.20;;
4957;SDS011;2494;51.872;9.688;2024-01-06T14:53:23;11.60;;;7.13;;
4957;SDS011;2494;51.872;9.688;2024-01-06T14:56:08;9.10;;;7.33;;
4957;SDS011;2494;51.872;9.688;2024-01-06T14:58:53;9.50;;;5.93;;
4957;SDS011;2494;51.872;9.688;2024-01-06T15:01:42;10.27;;;7.13;;
4957;SDS011;2494;51.872;9.688;2024-01-06T15:04:28;9.67;;;6.67;;
4957;SDS011;2494;51.872;9.688;2024-01-06T15:07:12;7.17;;;6.47;;
4957;SDS011;2494;51.872;9.688;2024-01-06T15:09:57;10.30;;;6.80;;
4957;SDS011;2494;51.872;9.688;2024-01-06T15:12:42;10.27;;;5.50;;
4957;SDS011;2494;51.872;9.688;2024-01-06T15:15:27;10.00;;;8.10;;
4957;SDS011;2494;51.872;9.688;2024-01-06T15:18:12;8.17;;;5.80;;
4957;SDS011;2494;51.872;9.688;2024-01-06T15:20:59;8.73;;;7.60;;
4957;SDS011;2494;51.872;9.688;2024-01-06T15:23:44;6.50;;;5.40;;
4957;SDS011;2494;51.872;9.688;2024-01-06T15:26:29;9.20;;;5.37;;
4957;SDS011;2494;51.872;9.688;2024-01-06T15:29:15;6.80;;;5.00;;
4957;SDS011;2494;51.872;9.688;2024-01-06T15:32:00;6.20;;;4.30;;
4957;SDS011;2494;51.872;9.688;2024-01-06T15:34:45;3.37;;;3.03;;
4957;SDS011;2494;51.872;9.688;2024-01-06T15:37:31;5.90;;;4.00;;
4957;SDS011;2494;51.872;9.688;2024-01-06T15:40:17;6.83;;;4.40;;
4957;SDS011;2494;51.872;9.688;2024-01-06T15:43:03;4.53;;;3.57;;
4957;SDS011;2494;51.872;9.688;2024-01-06T15:45:49;5.53;;;3.30;;
4957;SDS011;2494;51.872;9.688;2024-01-06T15:48:35;3.93;;;3.27;;
4957;SDS011;2494;51.872;9.688;2024-01-06T15:51:21;5.87;;;3.70;;
4957;SDS011;2494;51.872;9.688;2024-01-06T15:54:08;4.17;;;3.20;;
4957;SDS011;2494;51.872;9.688;2024-01-06T15:56:54;5.20;;;3.60;;
4957;SDS011;2494;51.872;9.688;2024-01-06T15:59:39;6.13;;;3.23;;
4957;SDS011;2494;51.872;9.688;2024-01-06T16:02:24;4.33;;;3.97;;
4957;SDS011;2494;51.872;9.688;2024-01-06T16:05:09;4.13;;;3.60;;
4957;SDS011;2494;51.872;9.688;2024-01-06T16:07:54;9.07;;;3.93;;
4957;SDS011;2494;51.872;9.688;2024-01-06T16:10:40;4.47;;;2.80;;
4957;SDS011;2494;51.872;9.688;2024-01-06T16:13:26;7.13;;;3.40;;
4957;SDS011;2494;51.872;9.688;2024-01-06T16:16:11;5.40;;;3.50;;
4957;SDS011;2494;51.872;9.688;2024-01-06T16:18:56;5.70;;;3.67;;
4957;SDS011;2494;51.872;9.688;2024-01-06T16:21:41;5.50;;;4.10;;
4957;SDS011;2494;51.872;9.688;2024-01-06T16:24:26;4.83;;;4.33;;
4957;SDS011;2494;51.872;9.688;2024-01-06T16:27:13;8.47;;;4.50;;
4957;SDS011;2494;51.872;9.688;2024-01-06T16:29:59;9.50;;;3.70;;
4957;SDS011;2494;51.872;9.688;2024-01-06T16:32:43;6.70;;;4.27;;
4957;SDS011;2494;51.872;9.688;2024-01-06T16:35:29;11.57;;;6.43;;
4957;SDS011;2494;51.872;9.688;2024-01-06T16:38:14;3.33;;;2.67;;
4957;SDS011;2494;51.872;9.688;2024-01-06T16:40:59;12.27;;;6.30;;
4957;SDS011;2494;51.872;9.688;2024-01-06T16:43:45;12.37;;;4.67;;
4957;SDS011;2494;51.872;9.688;2024-01-06T16:46:30;11.43;;;6.77;;
4957;SDS011;2494;51.872;9.688;2024-01-06T16:49:15;9.93;;;5.47;;
4957;SDS011;2494;51.872;9.688;2024-01-06T16:52:00;10.00;;;5.13;;
4957;SDS011;2494;51.872;9.688;2024-01-06T16:54:45;8.37;;;5.10;;
4957;SDS011;2494;51.872;9.688;2024-01-06T16:57:30;8.00;;;4.57;;
4957;SDS011;2494;51.872;9.688;2024-01-06T17:00:19;9.23;;;5.17;;
4957;SDS011;2494;51.872;9.688;2024-01-06T17:03:04;7.03;;;4.27;;
4957;SDS011;2494;51.872;9.688;2024-01-06T17:05:49;9.20;;;5.13;;
4957;SDS011;2494;51.872;9.688;2024-01-06T17:08:34;11.00;;;6.60;;